Terminal Aerodrome Forecast
Issued by NWS

Home | Current Version | Previous Version | Text Only | Print | Product List | Glossary On
Versions: 1 2 3 4 5 6 7 8 9 10 11 12 13 14 15 16
000
FTUS43 KMPX 171700
TAFRNH
TAF
KRNH 171737Z 1718/1818 33010KT P6SM OVC015
     FM172300 32005KT P6SM SCT030
     FM180200 VRB02KT P6SM SKC
     FM180900 05003KT 4SM BR FEW200
     FM181300 11007KT P6SM BKN080=

USA.gov is the U.S. government's official web portal to all federal, state and local government web resources and services.